x

Western Gulf Of Alaska - 175nm Se Of Kodiak, Ak (46001) Wave Buoy

5:50am - Thu 28th Jul 2016 All times are AKDT. -8 hours from GMT.

  • Sig Wave height 7.9ft
  • Peak Period 7s
  • Average Period 5s
  • Wind
    25mph, 27mph gusts
  • Sea Temp 58°f
  • Air Temp 57°f
  • Sea Pressure 1009.6mb
  • Western Gulf Of Alaska  - 175nm Se Of Kodiak, Ak
  • Western Gulf Of Alaska  - 175nm Se Of Kodiak, Ak

More Historic Weather Station data

Upgrade to MSW Pro to gain access to the past 30 days of data for over 8000 Wavebouys and Weather Stations around the globe.

Join Pro

Comparision Forecast

View Surf forecast
   
Thu 07/28 5:50am 8ft 7s 5s 25 27 mph 1009.6mb 58f 57f
4:50am 7ft 7s 5s 25 27 mph 1009.1mb 58f 57f
3:50am 7.5ft 7s 5s 22 27 mph 1008.5mb 58f 57f
2:50am 7.5ft 6s 5s 22 29 mph 1008.1mb 58f 58f
1:50am 8ft 6s 5s 25 29 mph 1007.6mb 58f 57f
12:50am 8.5ft 7s 5s 27 31 mph 1007mb 58f 57f
Wed 07/27 11:50pm 7ft 7s 5s 25 31 mph 1006.4mb 58f 57f
10:50pm 6.5ft 6s 5s 25 29 mph 1006.1mb 58f 57f
9:50pm 5ft 6s 4s 25 29 mph 1005.5mb 58f 58f
8:50pm 3.5ft 6s 4s 25 29 mph 1005.1mb 58f 56f
7:50pm 3.5ft 7s 5s 16 18 mph 1004.7mb 58f 56f
6:50pm 4ft 7s 5s 13 16 mph 1004.5mb 58f 56f
5:50pm 4ft 7s 5s 11 13 mph 1004.5mb 58f 56f
4:50pm 4ft 7s 5s 13 16 mph 1004.4mb 58f 56f
3:50pm 3.5ft 7s 5s 13 16 mph 1004.3mb 58f 56f
2:50pm 4ft 7s 5s 13 16 mph 1004.3mb 58f 55f
1:50pm 4ft 7s 6s 13 16 mph 1004.2mb 58f 56f
12:50pm 4ft 7s 6s 11 13 mph 1004mb 58f 56f
11:50am 3.5ft 7s 6s 9
mph
1004.1mb 58f 55f
10:50am 4ft 7s 6s 7
mph
1004.2mb 58f 55f
9:50am 4.5ft 7s 6s 2 4 mph 1004.6mb 58f 55f
8:50am 3.5ft 7s 6s 2
mph
1005mb 58f 55f
7:50am 4.5ft 7s 6s 9 11 mph 1005.4mb 58f 56f
6:50am 5ft 8s 5s 9 13 mph 1005.7mb 58f 56f
5:50am 4.5ft 7s 5s 11 13 mph 1006.2mb 58f 56f
4:50am 4.5ft 7s 5s 9
mph
1006.7mb 58f 55f
3:50am 4.5ft 6s 5s 11 13 mph 1007.1mb 58f 56f
2:50am 5ft 7s 5s 9 11 mph 1007.4mb 58f 56f
1:50am 5ft 8s 6s 11 16 mph 1007.9mb 58f 55f
12:50am 5ft 7s 6s 9 11 mph 1008.1mb 58f 57f
Tue 07/26 11:50pm 5ft 7s 6s 11 16 mph 1008.3mb 58f 57f
10:50pm 4.5ft 7s 6s 7 9 mph 1008.4mb 58f 57f
9:50pm 4ft 8s 6s 7 9 mph 1008.2mb 58f 56f
8:50pm 3.5ft 14s 6s 9
mph
1007.9mb 58f 56f
7:50pm 3.5ft 14s 6s 7 9 mph 1007.8mb 58f 57f
6:50pm 3ft 14s 5s 9 11 mph 1007.7mb 58f 57f
5:50pm 3ft 14s 5s 11
mph
1007.6mb 58f 57f
4:50pm 2.5ft 5s 5s 11 13 mph 1007.5mb 58f 58f
3:50pm 2.5ft 6s 4s 9 11 mph 1007.5mb 58f 57f
2:50pm 3ft 14s 4s 9 11 mph 1007.7mb 58f 56f
1:50pm 3ft 5s 4s 11 13 mph 1007.7mb 58f 56f
12:50pm 3.5ft 15s 5s 13
mph
1007.8mb 58f 57f
11:50am 3.5ft 15s 5s 11
mph
1007.8mb 58f 57f
10:50am 3.5ft 14s 5s 11 13 mph 1007.7mb 58f 57f
9:50am 3.5ft 14s 5s 11 13 mph 1007.6mb 58f 56f
8:50am 3.5ft 14s 5s 11 13 mph 1007.5mb 58f 56f
7:50am 3ft 6s 4s 4 7 mph 1007.5mb 58f 55f
6:50am 3.5ft 15s 5s 13
mph
1007.5mb 58f 55f
5:50am 3.5ft 5s 5s 11 13 mph 1007.7mb 58f 54f
4:50am 4ft 15s 5s 11 13 mph 1007.6mb 58f 56f
3:50am 4ft 5s 5s 9 11 mph 1007.8mb 58f 56f
2:50am 4ft 5s 5s 9 11 mph 1008.1mb 58f 56f
1:50am 4ft 5s 5s 9 11 mph 1008.2mb 58f 56f
12:50am 4ft 7s 5s 11 13 mph 1008.1mb 58f 56f
Mon 07/25 11:50pm 4.5ft 6s 5s 11 13 mph 1008.2mb 58f 56f
10:50pm 4.5ft 6s 5s 13 16 mph 1008.2mb 58f 55f
9:50pm 4.5ft 8s 5s 13 16 mph 1007.8mb 58f 55f
8:50pm 4.5ft 5s 5s 16 20 mph 1007.5mb 58f 55f
7:50pm 4.5ft 6s 5s 11 13 mph 1007.5mb 58f 56f
6:50pm 5ft 6s 5s 13 16 mph 1007.4mb 58f 56f
5:50pm 5ft 6s 5s 13 16 mph 1007.5mb 58f 55f
4:50pm 5ft 5s 5s 16 20 mph 1007.6mb 58f 54f
3:50pm 5ft 6s 5s 13 16 mph 1007.7mb 58f 54f
2:50pm 6ft 6s 5s 16 18 mph 1007.5mb 58f 55f
1:50pm 6ft 8s 5s 18 20 mph 1007.4mb 58f 56f
12:50pm 6ft 7s 5s 18 20 mph 1007.3mb 58f 56f
11:50am 5.5ft 7s 5s 18 20 mph 1007.3mb 58f 55f
10:50am 5.5ft 7s 5s 18 22 mph 1007.2mb 58f 55f
9:50am 5.5ft 8s 5s 20 22 mph 1007mb 58f 55f
8:50am 5ft 7s 5s 16 20 mph 1006.8mb 58f 55f
7:50am 5.5ft 7s 5s 18 20 mph 1006.8mb 58f 55f
6:50am 6ft 6s 5s 16 18 mph 1006.8mb 58f 54f
5:50am 6ft 7s 5s 18 20 mph 1006.9mb 58f 55f
4:50am 6.5ft 7s 5s 18 20 mph 1007.1mb 58f 55f
3:50am 6ft 6s 5s 16 20 mph 1007.3mb 58f 55f
2:50am 6.5ft 7s 5s 20 25 mph 1007.6mb 58f 55f
1:50am 7ft 6s 5s 20 25 mph 1007.8mb 58f 55f
12:50am 6.5ft 7s 5s 20 25 mph 1008mb 58f 55f
Sun 07/24 11:50pm 6.5ft 6s 5s 20 25 mph 1008.2mb 58f 56f
10:50pm 6.5ft 8s 5s 20 25 mph 1008.3mb 58f 56f
9:50pm 6.5ft 7s 5s 20 22 mph 1008.3mb 58f 56f
8:50pm 6ft 8s 5s 20 22 mph 1008.1mb 58f 56f
7:50pm 6.5ft 7s 5s 20 22 mph 1008.1mb 58f 56f
6:50pm 7ft 7s 5s 18 22 mph 1008.4mb 58f 56f
5:50pm 6.5ft 7s 5s 20 22 mph 1008.5mb 58f 57f
4:50pm 7ft 8s 5s 20 22 mph 1008.8mb 58f 57f
3:50pm 8ft 7s 5s 20 25 mph 1008.8mb 58f 57f